Time;durP1;ratioP1;P1;durP2;ratioP2;P2;SDS_P1;SDS_P2;PMS_P1;PMS_P2;Temp;Humidity;BMP_temperature;BMP_pressure;BME280_temperature;BME280_humidity;BME280_pressure;Samples;Min_cycle;Max_cycle;Signal;HPM_P1;HPM_P2
2021/01/18 00:00:19;;;;;;;9.98;5.30;;;3.60;90.50;;;;;;10018275;28;20531;-62
2021/01/18 00:05:10;;;;;;;11.43;4.90;;;3.60;90.60;;;;;;10017334;28;20243;-62
2021/01/18 00:10:00;;;;;;;12.75;5.03;;;3.60;90.50;;;;;;10017235;28;20354;-62
2021/01/18 00:14:51;;;;;;;9.85;4.85;;;3.60;90.50;;;;;;10018644;28;20806;-61
2021/01/18 00:19:41;;;;;;;8.98;4.47;;;3.70;90.40;;;;;;10018159;28;20058;-60
2021/01/18 00:24:32;;;;;;;12.05;4.60;;;3.80;90.40;;;;;;10017564;28;20072;-61
2021/01/18 00:29:22;;;;;;;8.40;4.50;;;3.80;90.30;;;;;;10017463;28;20040;-62
2021/01/18 00:34:13;;;;;;;10.52;4.55;;;3.80;90.40;;;;;;10018432;28;20073;-62
2021/01/18 00:39:03;;;;;;;9.38;4.47;;;3.90;90.30;;;;;;10017580;28;20041;-60
2021/01/18 00:43:54;;;;;;;7.93;4.72;;;3.80;90.30;;;;;;10014687;28;20122;-60
2021/01/18 00:48:45;;;;;;;8.52;4.05;;;3.80;90.30;;;;;;10018178;28;20499;-61
2021/01/18 00:53:35;;;;;;;9.32;3.25;;;3.70;90.40;;;;;;10016878;28;20033;-61
2021/01/18 00:58:26;;;;;;;7.50;4.30;;;3.70;90.50;;;;;;10013671;28;20636;-61
2021/01/18 01:03:16;;;;;;;8.95;4.75;;;3.70;90.50;;;;;;10016617;28;20041;-62
2021/01/18 01:08:07;;;;;;;10.13;4.00;;;3.80;90.40;;;;;;10015421;28;20021;-60
2021/01/18 01:13:03;;;;;;;8.70;4.05;;;3.70;90.40;;;;;;10015410;28;20100;-59
2021/01/18 01:17:54;;;;;;;10.18;4.43;;;3.80;90.30;;;;;;10015358;28;20050;-61
2021/01/18 01:22:44;;;;;;;12.40;4.60;;;3.70;90.40;;;;;;10014115;28;20057;-60
2021/01/18 01:27:36;;;;;;;6.70;3.38;;;3.70;90.50;;;;;;10016388;28;20034;-61
2021/01/18 01:32:26;;;;;;;11.20;3.88;;;3.70;90.30;;;;;;10015070;28;20219;-61
2021/01/18 01:37:17;;;;;;;8.75;4.20;;;3.70;90.30;;;;;;10015564;28;20195;-61
2021/01/18 01:42:22;;;;;;;8.80;3.97;;;3.70;90.30;;;;;;10015307;28;20127;-62
2021/01/18 01:47:39;;;;;;;5.63;3.42;;;3.70;90.40;;;;;;9996090;28;20037;-60
2021/01/18 01:52:31;;;;;;;5.63;2.70;;;3.70;90.40;;;;;;10013535;28;20124;-61
2021/01/18 01:57:24;;;;;;;7.35;3.17;;;3.80;90.30;;;;;;10014257;28;20200;-61
2021/01/18 02:02:15;;;;;;;7.35;3.33;;;3.80;90.20;;;;;;10014600;28;20091;-60
2021/01/18 02:07:26;;;;;;;6.75;3.50;;;3.80;90.20;;;;;;10012317;28;20049;-61
2021/01/18 02:12:17;;;;;;;3.70;2.75;;;3.90;90.10;;;;;;10012692;28;20506;-62
2021/01/18 02:17:49;;;;;;;8.68;3.58;;;3.80;90.10;;;;;;10013167;28;20106;-61
2021/01/18 02:22:58;;;;;;;4.97;2.78;;;3.80;90.30;;;;;;9942070;28;20053;-61
2021/01/18 02:28:14;;;;;;;6.88;2.67;;;3.90;90.10;;;;;;10013764;28;20041;-61
2021/01/18 02:33:34;;;;;;;5.80;2.58;;;3.90;90.00;;;;;;10012346;28;20419;-60
2021/01/18 02:39:08;;;;;;;6.40;2.20;;;4.00;89.90;;;;;;10012794;28;20025;-61
2021/01/18 02:44:04;;;;;;;8.65;3.08;;;4.00;89.70;;;;;;9974646;28;20057;-61
2021/01/18 02:48:57;;;;;;;6.00;3.65;;;4.00;89.80;;;;;;10013252;28;20029;-60
2021/01/18 02:53:58;;;;;;;9.80;3.13;;;3.80;90.00;;;;;;10011106;28;20104;-61
2021/01/18 02:58:49;;;;;;;8.15;3.50;;;3.80;90.00;;;;;;10013393;28;20494;-60
2021/01/18 03:03:59;;;;;;;5.45;3.05;;;3.80;90.00;;;;;;10012068;28;20042;-62
2021/01/18 03:08:55;;;;;;;3.80;2.35;;;3.80;90.00;;;;;;10011601;28;20675;-60
2021/01/18 03:13:48;;;;;;;;;;;3.70;90.00;;;;;;10012159;28;20407;-62
2021/01/18 03:18:42;;;;;;;4.30;2.00;;;3.80;89.70;;;;;;10012134;28;19929;-60
2021/01/18 03:23:32;;;;;;;6.63;2.80;;;3.90;89.40;;;;;;10018275;28;20041;-59
2021/01/18 03:28:24;;;;;;;6.32;2.67;;;3.90;89.40;;;;;;10019014;28;20056;-60
2021/01/18 03:33:15;;;;;;;6.97;3.33;;;3.90;89.50;;;;;;10019821;28;20112;-60
2021/01/18 03:38:06;;;;;;;5.10;2.65;;;3.90;89.40;;;;;;10018806;28;20068;-60
2021/01/18 03:43:05;;;;;;;4.32;2.33;;;3.90;89.30;;;;;;10019089;28;20435;-60
2021/01/18 03:47:56;;;;;;;4.07;2.65;;;3.90;89.40;;;;;;10018988;28;20033;-62
2021/01/18 03:52:48;;;;;;;9.27;2.78;;;3.90;89.20;;;;;;10018289;28;20438;-61
2021/01/18 03:57:38;;;;;;;7.22;3.20;;;3.90;89.30;;;;;;10019831;28;20041;-59
2021/01/18 04:02:29;;;;;;;6.68;3.17;;;3.90;89.40;;;;;;10016836;28;20033;-60
2021/01/18 04:07:19;;;;;;;9.30;5.25;;;3.80;89.70;;;;;;10018909;28;20105;-62
2021/01/18 04:12:10;;;;;;;7.57;3.53;;;3.80;89.70;;;;;;10016067;28;20523;-61
2021/01/18 04:17:01;;;;;;;10.02;4.13;;;3.80;90.00;;;;;;10018423;28;20053;-60
2021/01/18 04:21:51;;;;;;;4.57;2.60;;;3.80;89.60;;;;;;10018339;28;20620;-60
2021/01/18 04:26:42;;;;;;;8.45;3.72;;;3.70;89.70;;;;;;10017508;28;20042;-61
2021/01/18 04:31:32;;;;;;;4.80;2.95;;;3.80;89.50;;;;;;10016140;28;20528;-62
2021/01/18 04:36:23;;;;;;;3.75;2.72;;;3.80;89.50;;;;;;10018249;28;20030;-60
2021/01/18 04:41:14;;;;;;;4.72;2.90;;;3.70;89.60;;;;;;10016519;28;20053;-60
2021/01/18 04:46:10;;;;;;;6.22;2.70;;;3.70;89.50;;;;;;10016997;28;20032;-61
2021/01/18 04:51:00;;;;;;;;;;;3.60;89.50;;;;;;10018338;28;20048;-61
2021/01/18 04:56:31;;;;;;;4.13;3.40;;;3.50;89.70;;;;;;10016158;28;19944;-61
2021/01/18 05:01:28;;;;;;;3.95;2.30;;;3.50;89.60;;;;;;10016359;28;20044;-61
2021/01/18 05:06:33;;;;;;;6.07;3.50;;;3.40;89.80;;;;;;10015777;28;20041;-61
2021/01/18 05:11:24;;;;;;;3.72;2.47;;;3.50;89.70;;;;;;10015904;28;20588;-60
2021/01/18 05:16:14;;;;;;;5.65;2.75;;;3.50;89.50;;;;;;10015097;28;20115;-60
2021/01/18 05:21:07;;;;;;;6.47;2.70;;;3.50;89.30;;;;;;10015694;28;20132;-60
2021/01/18 05:26:28;;;;;;;3.97;2.28;;;3.50;89.40;;;;;;10015580;28;20057;-60
2021/01/18 05:31:39;;;;;;;4.72;2.42;;;3.50;89.60;;;;;;10013508;28;20161;-60
2021/01/18 05:36:36;;;;;;;4.53;2.58;;;3.60;89.50;;;;;;10013547;28;20064;-61
2021/01/18 05:41:30;;;;;;;5.60;2.25;;;3.50;89.50;;;;;;10014289;28;20037;-61
2021/01/18 05:46:21;;;;;;;5.57;2.58;;;3.60;89.40;;;;;;10014459;28;20487;-61
2021/01/18 05:51:19;;;;;;;4.72;2.65;;;3.60;89.40;;;;;;10012107;28;20060;-61
2021/01/18 05:56:17;;;;;;;6.15;2.85;;;3.60;89.30;;;;;;10014649;28;20029;-60
2021/01/18 06:01:07;;;;;;;5.43;2.35;;;3.60;89.60;;;;;;10013462;28;20050;-61
2021/01/18 06:05:59;;;;;;;4.88;2.60;;;3.50;89.30;;;;;;10012781;28;20438;-61
2021/01/18 06:10:52;;;;;;;6.10;3.13;;;3.50;89.50;;;;;;10011744;28;20410;-60
2021/01/18 06:15:43;;;;;;;7.15;2.90;;;3.40;89.60;;;;;;10013340;28;20037;-61
2021/01/18 06:20:33;;;;;;;7.32;3.05;;;3.30;89.70;;;;;;10014018;28;20084;-60
2021/01/18 06:25:31;;;;;;;6.45;2.55;;;3.40;89.60;;;;;;10014008;28;20037;-61
2021/01/18 06:30:22;;;;;;;8.38;2.90;;;3.40;89.60;;;;;;10013416;28;20050;-60
2021/01/18 06:35:20;;;;;;;5.45;3.03;;;3.40;89.60;;;;;;10014958;28;20474;-60
2021/01/18 06:40:13;;;;;;;5.53;2.75;;;3.30;89.70;;;;;;10012454;28;20037;-62
2021/01/18 06:45:18;;;;;;;7.60;2.85;;;3.20;89.70;;;;;;10014129;28;20041;-61
2021/01/18 06:50:09;;;;;;;3.67;2.10;;;3.30;89.60;;;;;;10012815;28;20057;-60
2021/01/18 06:55:08;;;;;;;6.32;2.50;;;3.30;90.00;;;;;;10010150;28;20483;-60
2021/01/18 07:00:03;;;;;;;6.50;2.53;;;3.30;89.60;;;;;;10012981;28;20601;-59
2021/01/18 07:05:13;;;;;;;4.53;3.03;;;3.30;89.60;;;;;;10010226;28;20065;-61
2021/01/18 07:10:05;;;;;;;4.63;2.53;;;3.40;89.50;;;;;;10011905;28;20825;-60
2021/01/18 07:15:04;;;;;;;7.10;2.47;;;3.40;89.30;;;;;;10010127;28;20737;-60
2021/01/18 07:19:58;;;;;;;5.65;2.60;;;3.40;89.30;;;;;;10013757;28;20865;-60
2021/01/18 07:24:58;;;;;;;5.40;2.55;;;3.50;89.20;;;;;;10011900;28;20124;-62
2021/01/18 07:29:48;;;;;;;5.28;3.17;;;3.60;89.10;;;;;;10010339;28;20029;-60
2021/01/18 07:34:39;;;;;;;3.47;2.15;;;3.60;89.10;;;;;;10012435;28;20040;-53
2021/01/18 07:39:43;;;;;;;4.05;2.38;;;3.60;89.10;;;;;;10011340;28;20384;-60
2021/01/18 07:44:37;;;;;;;5.03;2.25;;;3.60;89.20;;;;;;10012124;28;20379;-60
2021/01/18 07:49:35;;;;;;;6.38;2.63;;;3.50;89.40;;;;;;10026509;28;20262;-60
2021/01/18 07:54:34;;;;;;;7.00;2.97;;;3.40;89.40;;;;;;10011172;28;20025;-56
2021/01/18 07:59:24;;;;;;;3.63;2.20;;;3.50;89.50;;;;;;10017253;28;20031;-60
2021/01/18 08:04:19;;;;;;;3.90;2.17;;;3.50;89.40;;;;;;10005972;28;20050;-63
2021/01/18 08:09:25;;;;;;;3.47;2.63;;;3.60;89.10;;;;;;10016047;28;20036;-61
2021/01/18 08:14:16;;;;;;;4.35;2.67;;;3.60;89.30;;;;;;10017699;28;20115;-61
2021/01/18 08:19:22;;;;;;;4.30;2.50;;;3.60;89.40;;;;;;10051496;28;20109;-59
2021/01/18 08:24:36;;;;;;;10.43;4.13;;;3.60;89.50;;;;;;10035029;28;20037;-61
2021/01/18 08:29:45;;;;;;;5.47;2.92;;;3.60;89.50;;;;;;10026831;28;20030;-61
2021/01/18 08:34:36;;;;;;;5.10;3.67;;;3.70;89.30;;;;;;10049527;28;20104;-61
2021/01/18 08:39:27;;;;;;;5.85;3.85;;;3.80;89.40;;;;;;10045895;28;20594;-60
2021/01/18 08:44:30;;;;;;;6.95;3.50;;;3.80;89.10;;;;;;10053590;28;20042;-60
2021/01/18 08:49:31;;;;;;;9.70;3.53;;;3.90;89.30;;;;;;10058406;28;20399;-61
2021/01/18 08:54:36;;;;;;;7.28;3.47;;;3.90;89.20;;;;;;10039936;28;20107;-61
2021/01/18 08:59:26;;;;;;;9.20;3.60;;;3.90;89.20;;;;;;10043640;28;20041;-61
2021/01/18 09:04:24;;;;;;;5.97;3.50;;;3.90;89.30;;;;;;10043631;28;20049;-60
2021/01/18 09:09:14;;;;;;;7.78;4.20;;;4.10;89.30;;;;;;10043699;28;20017;-62
2021/01/18 09:14:05;;;;;;;8.70;3.92;;;4.20;88.90;;;;;;10042952;28;20407;-62
2021/01/18 09:19:05;;;;;;;9.82;3.60;;;4.20;89.00;;;;;;10043469;28;20100;-59
2021/01/18 09:23:56;;;;;;;6.13;4.15;;;4.30;88.90;;;;;;10043562;28;20045;-61
2021/01/18 09:28:52;;;;;;;7.85;3.38;;;4.40;88.80;;;;;;10041519;28;20033;-62
2021/01/18 09:33:43;;;;;;;7.78;5.30;;;4.40;88.50;;;;;;10040785;28;20384;-60
2021/01/18 09:38:34;;;;;;;9.90;3.65;;;4.50;88.60;;;;;;10037686;28;20034;-60
2021/01/18 09:43:28;;;;;;;8.32;4.22;;;4.60;88.50;;;;;;10033512;28;20034;-59
2021/01/18 09:48:22;;;;;;;10.45;3.75;;;4.70;88.50;;;;;;10035392;28;20056;-61
2021/01/18 09:53:13;;;;;;;6.43;3.85;;;4.60;88.40;;;;;;10042985;28;20025;-60
2021/01/18 09:58:09;;;;;;;6.22;3.75;;;4.70;88.40;;;;;;10038970;28;20223;-60
2021/01/18 10:03:00;;;;;;;5.78;3.92;;;4.90;88.00;;;;;;10041801;28;20060;-60
2021/01/18 10:07:55;;;;;;;6.53;2.95;;;4.90;88.00;;;;;;10041164;28;20072;-60
2021/01/18 10:12:51;;;;;;;3.70;2.70;;;4.90;88.10;;;;;;10040912;28;20470;-60
2021/01/18 10:17:42;;;;;;;5.68;3.03;;;5.00;88.00;;;;;;10032422;28;20351;-60
2021/01/18 10:22:36;;;;;;;5.13;3.22;;;4.90;87.70;;;;;;10037042;28;20240;-60
2021/01/18 10:27:29;;;;;;;5.95;3.72;;;5.00;87.80;;;;;;10031590;28;20056;-60
2021/01/18 10:32:19;;;;;;;6.97;3.30;;;5.10;87.70;;;;;;10045152;28;20310;-59
2021/01/18 10:37:12;;;;;;;6.10;3.75;;;5.20;87.20;;;;;;10043652;28;20075;-59
2021/01/18 10:42:10;;;;;;;9.35;3.72;;;5.10;87.40;;;;;;10041419;28;20045;-61
2021/01/18 10:47:01;;;;;;;9.00;3.50;;;5.10;87.30;;;;;;10042528;28;20303;-59
2021/01/18 10:52:09;;;;;;;6.70;3.53;;;5.20;87.30;;;;;;10033840;28;20290;-61
2021/01/18 10:57:00;;;;;;;8.23;3.70;;;5.30;87.10;;;;;;10039804;28;20369;-60
2021/01/18 11:02:11;;;;;;;9.77;4.63;;;5.50;86.50;;;;;;10034672;28;20061;-60
2021/01/18 11:07:08;;;;;;;9.50;4.88;;;5.70;86.30;;;;;;10037766;28;20502;-59
2021/01/18 11:12:00;;;;;;;5.55;4.15;;;5.70;86.40;;;;;;10034446;28;20029;-60
2021/01/18 11:16:58;;;;;;;6.95;3.53;;;5.70;86.40;;;;;;10035475;28;20124;-61
2021/01/18 11:21:48;;;;;;;6.38;4.22;;;5.90;85.60;;;;;;10027184;28;20037;-62
2021/01/18 11:26:39;;;;;;;6.90;4.88;;;5.80;85.80;;;;;;10020063;28;20033;-60
2021/01/18 11:31:30;;;;;;;8.43;3.88;;;5.90;86.10;;;;;;10009901;28;20029;-60
2021/01/18 11:36:25;;;;;;;6.65;4.03;;;5.90;85.90;;;;;;10010413;28;20033;-62
2021/01/18 11:41:15;;;;;;;7.55;3.70;;;6.00;85.70;;;;;;10012914;28;20037;-61
2021/01/18 11:46:06;;;;;;;7.30;4.00;;;6.00;85.60;;;;;;10020412;28;20122;-62
2021/01/18 11:50:56;;;;;;;12.52;5.53;;;6.00;85.20;;;;;;10018363;28;20057;-62
2021/01/18 11:55:48;;;;;;;12.32;4.68;;;5.90;85.30;;;;;;10018790;28;20029;-62
2021/01/18 12:00:39;;;;;;;6.40;4.15;;;5.90;85.20;;;;;;10017836;28;20033;-61
2021/01/18 12:05:30;;;;;;;8.05;4.63;;;5.90;84.90;;;;;;10018427;28;20034;-63
2021/01/18 12:10:21;;;;;;;8.77;4.30;;;5.80;85.00;;;;;;10016017;28;20037;-61
2021/01/18 12:15:12;;;;;;;9.30;4.80;;;5.80;84.70;;;;;;10017992;28;20054;-61
2021/01/18 12:20:03;;;;;;;8.52;4.10;;;5.90;84.60;;;;;;10018081;28;20041;-61
2021/01/18 12:24:54;;;;;;;8.45;3.45;;;5.90;84.10;;;;;;10017272;28;20086;-61
2021/01/18 12:29:44;;;;;;;7.22;4.18;;;5.90;83.90;;;;;;10016500;28;20056;-61
2021/01/18 12:34:35;;;;;;;8.75;3.83;;;6.10;83.50;;;;;;10018607;28;20031;-61
2021/01/18 12:39:25;;;;;;;8.88;4.55;;;6.10;83.40;;;;;;10018432;28;20737;-62
2021/01/18 12:44:16;;;;;;;6.93;3.40;;;6.30;83.10;;;;;;10016784;28;20037;-60
2021/01/18 12:49:07;;;;;;;5.68;2.95;;;6.30;82.90;;;;;;10018125;28;20089;-60
2021/01/18 12:53:57;;;;;;;7.53;3.85;;;6.40;82.50;;;;;;10014942;28;20029;-61
2021/01/18 12:58:48;;;;;;;8.02;3.80;;;6.40;81.30;;;;;;10017056;28;20029;-60
2021/01/18 13:03:38;;;;;;;7.05;4.07;;;6.50;82.10;;;;;;10037862;28;20739;-60
2021/01/18 13:08:29;;;;;;;5.13;3.80;;;6.70;81.40;;;;;;10036897;28;20217;-60
2021/01/18 13:13:20;;;;;;;7.25;3.72;;;6.70;81.30;;;;;;10046427;28;20109;-60
2021/01/18 13:18:10;;;;;;;6.07;2.70;;;6.40;81.30;;;;;;10039964;28;20052;-60
2021/01/18 13:23:01;;;;;;;7.95;4.43;;;6.30;81.30;;;;;;10040558;28;20154;-61
2021/01/18 13:27:52;;;;;;;5.43;3.30;;;6.30;81.40;;;;;;10036500;28;20033;-59
2021/01/18 13:32:42;;;;;;;10.27;4.03;;;6.40;81.00;;;;;;10056653;28;20052;-62
2021/01/18 13:37:33;;;;;;;7.28;3.45;;;6.60;80.60;;;;;;10035036;28;20025;-60
2021/01/18 13:42:23;;;;;;;7.32;3.70;;;6.60;79.80;;;;;;10055671;28;20147;-63
2021/01/18 13:47:14;;;;;;;6.68;3.15;;;6.40;79.90;;;;;;10042624;28;20463;-60
2021/01/18 13:52:04;;;;;;;7.47;3.47;;;6.20;80.10;;;;;;10035682;28;20040;-61
2021/01/18 13:56:55;;;;;;;6.68;3.22;;;6.30;79.70;;;;;;10038743;28;20049;-61
2021/01/18 14:01:46;;;;;;;5.60;3.08;;;6.20;79.40;;;;;;10035214;28;20052;-60
2021/01/18 14:06:39;;;;;;;8.18;3.55;;;6.10;79.30;;;;;;10042707;28;20503;-59
2021/01/18 14:11:41;;;;;;;6.50;3.20;;;6.10;79.70;;;;;;10033851;28;20025;-60
2021/01/18 14:16:32;;;;;;;4.70;2.60;;;6.10;79.30;;;;;;10041607;28;20049;-61
2021/01/18 14:21:22;;;;;;;6.18;2.50;;;6.10;79.40;;;;;;10037648;28;20234;-60
2021/01/18 14:26:23;;;;;;;6.03;3.58;;;6.00;79.30;;;;;;10044334;28;20116;-60
2021/01/18 14:31:28;;;;;;;6.38;2.95;;;5.90;79.30;;;;;;10038543;28;20033;-60
2021/01/18 14:36:21;;;;;;;4.93;2.67;;;5.90;79.30;;;;;;10042933;28;20414;-60
2021/01/18 14:41:22;;;;;;;5.03;2.83;;;6.00;79.00;;;;;;10043309;28;20065;-57
2021/01/18 14:46:14;;;;;;;5.80;3.50;;;5.90;78.80;;;;;;10034249;28;20131;-61
2021/01/18 14:51:06;;;;;;;4.82;3.03;;;5.80;78.70;;;;;;10041806;28;20572;-60
2021/01/18 14:55:57;;;;;;;4.75;3.00;;;5.70;78.90;;;;;;10035302;28;20176;-60
2021/01/18 15:00:47;;;;;;;3.40;2.60;;;5.70;78.90;;;;;;10040070;28;20515;-60
2021/01/18 15:05:43;;;;;;;4.35;2.70;;;5.70;78.60;;;;;;10033855;28;20053;-59
2021/01/18 15:10:34;;;;;;;5.00;2.92;;;5.60;78.80;;;;;;10051897;28;20117;-60
2021/01/18 15:15:24;;;;;;;6.00;2.85;;;5.50;78.90;;;;;;10039295;28;20216;-60
2021/01/18 15:20:15;;;;;;;5.25;3.42;;;5.40;79.00;;;;;;10048586;28;20392;-62
2021/01/18 15:25:06;;;;;;;7.30;3.72;;;5.30;79.40;;;;;;10049532;28;20127;-59
2021/01/18 15:29:57;;;;;;;5.93;3.40;;;5.30;79.50;;;;;;10055555;28;20029;-60
2021/01/18 15:34:48;;;;;;;5.75;3.20;;;5.20;79.50;;;;;;10046875;28;20026;-61
2021/01/18 15:39:38;;;;;;;6.15;3.35;;;5.20;79.70;;;;;;10048374;28;20387;-59
2021/01/18 15:44:29;;;;;;;5.32;3.08;;;5.10;79.60;;;;;;10048032;28;20040;-63
2021/01/18 15:49:19;;;;;;;6.22;3.63;;;5.00;80.00;;;;;;10046377;28;20024;-60
2021/01/18 15:54:10;;;;;;;4.95;3.33;;;5.00;80.00;;;;;;10047922;28;20038;-62
2021/01/18 15:59:01;;;;;;;7.03;3.50;;;4.90;80.00;;;;;;10049979;28;20022;-59
2021/01/18 16:03:52;;;;;;;8.43;3.47;;;4.90;80.20;;;;;;10043147;28;20538;-61
2021/01/18 16:08:42;;;;;;;9.30;3.33;;;4.80;80.40;;;;;;10043419;28;20025;-59
2021/01/18 16:13:33;;;;;;;7.20;3.45;;;4.80;80.50;;;;;;10042739;28;20037;-60
2021/01/18 16:18:24;;;;;;;7.53;3.28;;;4.80;80.60;;;;;;10046492;28;20041;-62
2021/01/18 16:23:14;;;;;;;8.20;3.40;;;4.70;80.50;;;;;;10050483;28;20553;-60
2021/01/18 16:28:05;;;;;;;6.20;3.35;;;4.70;80.50;;;;;;10043182;28;20583;-62
2021/01/18 16:32:56;;;;;;;7.13;3.75;;;4.70;80.60;;;;;;10036132;28;20033;-60
2021/01/18 16:37:47;;;;;;;7.50;3.97;;;4.70;80.60;;;;;;10045217;28;20037;-61
2021/01/18 16:42:39;;;;;;;7.13;3.50;;;4.70;80.60;;;;;;10040073;28;20569;-60
2021/01/18 16:47:29;;;;;;;6.82;3.17;;;4.80;80.50;;;;;;10038113;28;20032;-61
2021/01/18 16:52:20;;;;;;;6.18;3.00;;;4.80;80.60;;;;;;10045802;28;20030;-59
2021/01/18 16:57:10;;;;;;;5.68;3.53;;;4.70;80.70;;;;;;10040288;28;20029;-62
2021/01/18 17:02:05;;;;;;;5.47;3.28;;;4.60;80.90;;;;;;10045059;28;20040;-60
2021/01/18 17:06:56;;;;;;;6.43;3.20;;;4.60;81.00;;;;;;10036389;28;20034;-61
2021/01/18 17:11:47;;;;;;;6.80;3.90;;;4.60;80.90;;;;;;10039121;28;20095;-61
2021/01/18 17:16:38;;;;;;;7.28;3.95;;;4.60;80.60;;;;;;10043091;28;20041;-60
2021/01/18 17:21:29;;;;;;;6.97;3.40;;;4.50;80.80;;;;;;10036229;28;20042;-61
2021/01/18 17:26:20;;;;;;;7.47;4.13;;;4.50;81.10;;;;;;10054429;28;20041;-61
2021/01/18 17:31:11;;;;;;;6.28;4.35;;;4.50;80.90;;;;;;10036451;28;20239;-61
2021/01/18 17:36:01;;;;;;;7.38;3.28;;;4.40;80.90;;;;;;10040943;28;20292;-62
2021/01/18 17:40:52;;;;;;;9.45;3.53;;;4.30;81.10;;;;;;10034813;28;20503;-61
2021/01/18 17:45:43;;;;;;;8.60;3.75;;;4.20;81.30;;;;;;10035335;28;20419;-62
2021/01/18 17:50:33;;;;;;;5.20;3.63;;;4.20;81.20;;;;;;10045909;28;20032;-60
2021/01/18 17:55:24;;;;;;;8.88;3.38;;;4.20;81.20;;;;;;10035327;28;20037;-62
2021/01/18 18:00:17;;;;;;;6.45;3.20;;;4.10;81.20;;;;;;10042608;28;20044;-63
2021/01/18 18:05:08;;;;;;;5.82;3.63;;;4.10;81.30;;;;;;10035128;28;20108;-62
2021/01/18 18:09:59;;;;;;;9.40;3.08;;;4.10;81.40;;;;;;10043017;28;20176;-60
2021/01/18 18:14:49;;;;;;;4.10;2.72;;;4.10;81.40;;;;;;10051916;28;20382;-61
2021/01/18 18:19:40;;;;;;;5.07;2.67;;;4.10;81.70;;;;;;10039313;28;20046;-62
2021/01/18 18:24:33;;;;;;;4.93;3.45;;;4.00;81.70;;;;;;10034029;28;20038;-61
2021/01/18 18:29:23;;;;;;;6.72;3.28;;;4.00;81.70;;;;;;10039949;28;20059;-62
2021/01/18 18:34:16;;;;;;;6.95;3.00;;;3.90;81.80;;;;;;10039252;28;20028;-62
2021/01/18 18:39:07;;;;;;;6.10;2.97;;;3.90;82.70;;;;;;10046033;28;20032;-64
2021/01/18 18:43:58;;;;;;;4.50;3.25;;;3.90;82.10;;;;;;10043515;28;20064;-62
2021/01/18 18:48:50;;;;;;;6.72;2.75;;;3.80;82.40;;;;;;10032203;28;20467;-63
2021/01/18 18:53:41;;;;;;;5.15;2.78;;;3.90;82.30;;;;;;10044999;28;20523;-63
2021/01/18 18:58:31;;;;;;;7.82;3.05;;;3.90;82.40;;;;;;10034072;28;20047;-62
2021/01/18 19:03:22;;;;;;;7.60;3.13;;;3.90;82.40;;;;;;10044941;28;20045;-61
2021/01/18 19:08:13;;;;;;;5.95;3.30;;;3.80;82.50;;;;;;10040558;28;20033;-62
2021/01/18 19:13:03;;;;;;;5.75;2.58;;;3.80;83.00;;;;;;10045855;28;20038;-62
2021/01/18 19:17:54;;;;;;;6.93;2.88;;;3.80;83.10;;;;;;10043093;28;20046;-61
2021/01/18 19:22:48;;;;;;;7.40;4.43;;;3.90;82.80;;;;;;10045271;28;20430;-61
2021/01/18 19:27:40;;;;;;;6.50;3.20;;;3.90;82.60;;;;;;10043192;28;20037;-63
2021/01/18 19:32:30;;;;;;;9.38;3.47;;;3.90;82.60;;;;;;10043591;28;20108;-62
2021/01/18 19:37:23;;;;;;;8.70;3.88;;;3.90;82.60;;;;;;10030110;28;20490;-62
2021/01/18 19:42:13;;;;;;;4.43;2.92;;;3.90;82.80;;;;;;10032117;28;20445;-61
2021/01/18 19:47:05;;;;;;;5.07;3.15;;;3.80;82.70;;;;;;10040595;28;20038;-61
2021/01/18 19:51:55;;;;;;;10.30;3.30;;;3.80;83.50;;;;;;10042559;28;20056;-63
2021/01/18 19:56:48;;;;;;;5.97;3.80;;;3.80;82.80;;;;;;10022345;28;20068;-62
2021/01/18 20:01:40;;;;;;;3.78;2.60;;;3.90;82.70;;;;;;10037441;28;20041;-60
2021/01/18 20:06:31;;;;;;;3.88;2.67;;;3.80;82.80;;;;;;10063861;28;20424;-62
2021/01/18 20:11:26;;;;;;;8.40;3.63;;;3.70;82.90;;;;;;10045102;28;20033;-61
2021/01/18 20:16:19;;;;;;;7.65;3.63;;;3.70;82.90;;;;;;10043297;28;20045;-61
2021/01/18 20:21:10;;;;;;;5.07;2.90;;;3.70;83.00;;;;;;10049437;28;20025;-62
2021/01/18 20:26:00;;;;;;;7.13;3.35;;;3.70;82.90;;;;;;10044392;28;20085;-61
2021/01/18 20:30:51;;;;;;;7.03;3.80;;;3.70;83.10;;;;;;10047931;28;20509;-63
2021/01/18 20:35:42;;;;;;;5.63;3.33;;;3.70;83.00;;;;;;10049747;28;20033;-62
2021/01/18 20:40:33;;;;;;;8.70;3.50;;;3.60;83.00;;;;;;10045635;28;20041;-60
2021/01/18 20:45:29;;;;;;;10.52;4.18;;;3.60;82.80;;;;;;10047383;28;20517;-60
2021/01/18 20:50:20;;;;;;;8.52;4.40;;;3.60;82.90;;;;;;10046499;28;20061;-61
2021/01/18 20:55:11;;;;;;;9.63;3.65;;;3.50;83.00;;;;;;10047343;28;20037;-61
2021/01/18 21:00:05;;;;;;;7.38;3.28;;;3.60;82.80;;;;;;10045107;28;20060;-60
2021/01/18 21:04:56;;;;;;;7.00;3.53;;;3.40;83.00;;;;;;10047351;28;20227;-60
2021/01/18 21:09:46;;;;;;;5.90;3.20;;;3.30;83.00;;;;;;10043927;28;20271;-60
2021/01/18 21:14:37;;;;;;;6.57;3.08;;;3.30;83.10;;;;;;10042477;28;20120;-61
2021/01/18 21:19:27;;;;;;;5.55;3.05;;;3.20;83.40;;;;;;10044064;28;20328;-61
2021/01/18 21:24:18;;;;;;;7.00;2.65;;;3.20;83.30;;;;;;10045818;28;20046;-61
2021/01/18 21:29:09;;;;;;;6.80;3.13;;;3.20;83.70;;;;;;10042531;28;20434;-61
2021/01/18 21:34:00;;;;;;;9.18;4.28;;;3.20;83.60;;;;;;10038982;28;20044;-61
2021/01/18 21:38:51;;;;;;;7.22;3.97;;;3.30;83.50;;;;;;10040785;28;20137;-62
2021/01/18 21:43:42;;;;;;;6.47;3.38;;;3.20;83.70;;;;;;10039149;28;20253;-60
2021/01/18 21:48:32;;;;;;;5.55;3.05;;;3.30;83.80;;;;;;10041417;28;20614;-61
2021/01/18 21:53:23;;;;;;;7.13;3.75;;;3.30;84.10;;;;;;10037699;28;20470;-62
2021/01/18 21:58:13;;;;;;;5.35;3.65;;;3.30;83.70;;;;;;10053750;28;20053;-61
2021/01/18 22:03:04;;;;;;;12.07;3.53;;;3.40;83.90;;;;;;10030423;28;20548;-60
2021/01/18 22:07:55;;;;;;;6.97;4.18;;;3.30;83.80;;;;;;10038794;28;20281;-64
2021/01/18 22:12:45;;;;;;;9.02;4.28;;;3.30;84.00;;;;;;10039257;28;20038;-60
2021/01/18 22:17:36;;;;;;;8.73;3.58;;;3.30;84.00;;;;;;10042510;28;20454;-62
2021/01/18 22:22:27;;;;;;;7.47;3.60;;;3.20;83.90;;;;;;10037899;28;20099;-60
2021/01/18 22:27:18;;;;;;;5.05;3.20;;;3.20;84.20;;;;;;10051156;28;20114;-60
2021/01/18 22:32:08;;;;;;;7.45;3.67;;;3.10;83.90;;;;;;10036015;28;20096;-60
2021/01/18 22:37:00;;;;;;;6.18;3.88;;;3.10;84.00;;;;;;10034535;28;20021;-60
2021/01/18 22:41:51;;;;;;;9.15;4.88;;;3.10;84.40;;;;;;10034102;28;20032;-62
2021/01/18 22:46:41;;;;;;;8.68;4.07;;;3.10;84.30;;;;;;10042345;28;20025;-61
2021/01/18 22:51:32;;;;;;;8.23;3.83;;;3.10;84.30;;;;;;10036570;28;20402;-62
2021/01/18 22:56:25;;;;;;;7.28;3.63;;;3.20;84.30;;;;;;10040227;28;20355;-60
2021/01/18 23:01:17;;;;;;;6.78;3.70;;;3.20;84.20;;;;;;10028605;28;20033;-61
2021/01/18 23:06:07;;;;;;;9.52;3.30;;;3.10;84.20;;;;;;10040248;28;20025;-60
2021/01/18 23:10:58;;;;;;;7.13;3.38;;;3.10;85.00;;;;;;10031760;28;20880;-61
2021/01/18 23:15:49;;;;;;;8.30;3.75;;;3.10;84.20;;;;;;10049558;28;20038;-61
2021/01/18 23:20:39;;;;;;;8.82;3.03;;;3.10;84.00;;;;;;10039701;28;20151;-62
2021/01/18 23:25:30;;;;;;;7.10;3.90;;;3.10;83.90;;;;;;10035342;28;20037;-62
2021/01/18 23:30:21;;;;;;;7.20;3.22;;;3.00;83.90;;;;;;10032594;28;20026;-61
2021/01/18 23:35:14;;;;;;;3.47;2.38;;;2.80;84.40;;;;;;10040363;28;20033;-61
2021/01/18 23:40:06;;;;;;;7.28;2.42;;;2.80;84.20;;;;;;10036306;28;20037;-61
2021/01/18 23:44:56;;;;;;;11.98;3.45;;;2.70;84.30;;;;;;10058656;28;20030;-61
2021/01/18 23:49:47;;;;;;;7.57;3.63;;;2.60;84.60;;;;;;10040515;28;20026;-61
2021/01/18 23:54:37;;;;;;;6.57;3.50;;;2.60;84.30;;;;;;10043166;28;20069;-62
2021/01/18 23:59:28;;;;;;;5.05;3.15;;;2.60;84.10;;;;;;10039564;28;20067;-60
